sensor_id;sensor_type;location;lat;lon;timestamp;pressure;altitude;pressure_sealevel;temperature;humidity
8717;BME280;4395;48.554;8.820;2023-06-10T00:00:12;95541.31;;;21.98;61.38
8717;BME280;4395;48.554;8.820;2023-06-10T00:02:18;95545.19;;;22.18;60.12
8717;BME280;4395;48.554;8.820;2023-06-10T00:04:21;95528.13;;;22.21;59.55
8717;BME280;4395;48.554;8.820;2023-06-10T00:06:24;95531.84;;;22.16;60.25
8717;BME280;4395;48.554;8.820;2023-06-10T00:08:27;95529.91;;;22.37;59.26
8717;BME280;4395;48.554;8.820;2023-06-10T00:10:30;95534.09;;;21.72;62.19
8717;BME280;4395;48.554;8.820;2023-06-10T00:12:33;95534.53;;;22.04;60.70
8717;BME280;4395;48.554;8.820;2023-06-10T00:14:39;95531.91;;;22.28;59.68
8717;BME280;4395;48.554;8.820;2023-06-10T00:16:42;95522.47;;;22.38;58.75
8717;BME280;4395;48.554;8.820;2023-06-10T00:18:48;95541.81;;;22.54;58.00
8717;BME280;4395;48.554;8.820;2023-06-10T00:20:52;95537.78;;;21.97;60.89
8717;BME280;4395;48.554;8.820;2023-06-10T00:22:58;95531.31;;;22.23;59.53
8717;BME280;4395;48.554;8.820;2023-06-10T00:25:03;95537.88;;;22.09;60.27
8717;BME280;4395;48.554;8.820;2023-06-10T00:27:07;95525.44;;;21.41;62.20
8717;BME280;4395;48.554;8.820;2023-06-10T00:29:10;95532.72;;;21.28;64.55
8717;BME280;4395;48.554;8.820;2023-06-10T00:31:12;95534.91;;;21.43;63.69
8717;BME280;4395;48.554;8.820;2023-06-10T00:33:15;95536.38;;;21.91;61.14
8717;BME280;4395;48.554;8.820;2023-06-10T00:35:19;95526.47;;;21.78;59.42
8717;BME280;4395;48.554;8.820;2023-06-10T00:37:22;95520.25;;;20.29;67.38
8717;BME280;4395;48.554;8.820;2023-06-10T00:39:25;95525.88;;;20.41;69.09
8717;BME280;4395;48.554;8.820;2023-06-10T00:41:28;95524.09;;;20.28;70.00
8717;BME280;4395;48.554;8.820;2023-06-10T00:43:31;95527.72;;;19.45;74.97
8717;BME280;4395;48.554;8.820;2023-06-10T00:45:33;95521.38;;;20.28;71.29
8717;BME280;4395;48.554;8.820;2023-06-10T00:47:36;95520.31;;;20.93;67.24
8717;BME280;4395;48.554;8.820;2023-06-10T00:49:39;95519.22;;;21.32;64.88
8717;BME280;4395;48.554;8.820;2023-06-10T00:51:44;95522.72;;;21.62;63.32
8717;BME280;4395;48.554;8.820;2023-06-10T00:53:49;95531.91;;;21.87;61.80
8717;BME280;4395;48.554;8.820;2023-06-10T00:55:52;95512.53;;;21.71;62.10
8717;BME280;4395;48.554;8.820;2023-06-10T00:57:55;95518.56;;;21.85;61.46
8717;BME280;4395;48.554;8.820;2023-06-10T00:59:58;95519.94;;;21.91;61.35
8717;BME280;4395;48.554;8.820;2023-06-10T01:02:01;95526.50;;;21.99;60.76
8717;BME280;4395;48.554;8.820;2023-06-10T01:04:05;95527.81;;;21.72;62.15
8717;BME280;4395;48.554;8.820;2023-06-10T01:06:13;95525.19;;;20.70;67.66
8717;BME280;4395;48.554;8.820;2023-06-10T01:08:26;95530.38;;;21.47;63.61
8717;BME280;4395;48.554;8.820;2023-06-10T01:10:33;95536.47;;;21.15;64.95
8717;BME280;4395;48.554;8.820;2023-06-10T01:12:43;95525.66;;;20.80;67.22
8717;BME280;4395;48.554;8.820;2023-06-10T01:14:50;95525.78;;;20.93;66.48
8717;BME280;4395;48.554;8.820;2023-06-10T01:16:53;95517.88;;;19.92;70.62
8717;BME280;4395;48.554;8.820;2023-06-10T01:18:56;95523.47;;;19.79;74.04
8717;BME280;4395;48.554;8.820;2023-06-10T01:20:59;95525.41;;;19.87;72.42
8717;BME280;4395;48.554;8.820;2023-06-10T01:23:03;95521.94;;;19.38;76.71
8717;BME280;4395;48.554;8.820;2023-06-10T01:25:07;95523.66;;;18.55;81.34
8717;BME280;4395;48.554;8.820;2023-06-10T01:27:13;95522.56;;;19.26;78.10
8717;BME280;4395;48.554;8.820;2023-06-10T01:29:19;95526.34;;;19.56;76.61
8717;BME280;4395;48.554;8.820;2023-06-10T01:31:31;95529.91;;;20.09;72.69
8717;BME280;4395;48.554;8.820;2023-06-10T01:33:41;95529.19;;;19.51;75.38
8717;BME280;4395;48.554;8.820;2023-06-10T01:35:46;95524.44;;;19.66;74.73
8717;BME280;4395;48.554;8.820;2023-06-10T01:37:53;95532.41;;;19.53;75.34
8717;BME280;4395;48.554;8.820;2023-06-10T01:40:00;95526.84;;;19.76;75.02
8717;BME280;4395;48.554;8.820;2023-06-10T01:42:04;95530.22;;;19.73;74.93
8717;BME280;4395;48.554;8.820;2023-06-10T01:44:08;95531.81;;;19.74;74.07
8717;BME280;4395;48.554;8.820;2023-06-10T01:46:13;95534.41;;;20.13;72.55
8717;BME280;4395;48.554;8.820;2023-06-10T01:48:16;95527.94;;;20.35;71.16
8717;BME280;4395;48.554;8.820;2023-06-10T01:50:19;95538.84;;;20.61;68.62
8717;BME280;4395;48.554;8.820;2023-06-10T01:52:22;95538.50;;;20.89;67.94
8717;BME280;4395;48.554;8.820;2023-06-10T01:54:25;95527.44;;;20.68;67.66
8717;BME280;4395;48.554;8.820;2023-06-10T01:56:29;95535.72;;;20.97;67.08
8717;BME280;4395;48.554;8.820;2023-06-10T01:58:32;95531.31;;;21.22;65.44
8717;BME280;4395;48.554;8.820;2023-06-10T02:00:35;95527.75;;;21.30;64.74
8717;BME280;4395;48.554;8.820;2023-06-10T02:02:37;95532.50;;;21.04;65.83
8717;BME280;4395;48.554;8.820;2023-06-10T02:04:40;95531.03;;;21.44;64.17
8717;BME280;4395;48.554;8.820;2023-06-10T02:06:43;95518.38;;;21.40;63.98
8717;BME280;4395;48.554;8.820;2023-06-10T02:08:46;95532.94;;;21.14;64.98
8717;BME280;4395;48.554;8.820;2023-06-10T02:10:49;95532.47;;;20.40;69.25
8717;BME280;4395;48.554;8.820;2023-06-10T02:12:53;95537.72;;;20.62;67.92
8717;BME280;4395;48.554;8.820;2023-06-10T02:14:56;95526.84;;;20.02;72.55
8717;BME280;4395;48.554;8.820;2023-06-10T02:16:59;95542.25;;;19.89;73.10
8717;BME280;4395;48.554;8.820;2023-06-10T02:19:02;95532.91;;;19.64;74.71
8717;BME280;4395;48.554;8.820;2023-06-10T02:21:08;95535.06;;;19.27;77.56
8717;BME280;4395;48.554;8.820;2023-06-10T02:23:11;95542.06;;;19.68;75.79
8717;BME280;4395;48.554;8.820;2023-06-10T02:25:14;95546.59;;;19.90;74.89
8717;BME280;4395;48.554;8.820;2023-06-10T02:27:18;95551.69;;;19.66;75.91
8717;BME280;4395;48.554;8.820;2023-06-10T02:29:23;95549.28;;;19.73;75.42
8717;BME280;4395;48.554;8.820;2023-06-10T02:31:26;95553.97;;;19.98;74.38
8717;BME280;4395;48.554;8.820;2023-06-10T02:33:30;95546.75;;;20.28;72.71
8717;BME280;4395;48.554;8.820;2023-06-10T02:35:36;95543.69;;;20.38;72.22
8717;BME280;4395;48.554;8.820;2023-06-10T02:37:39;95551.22;;;19.81;74.65
8717;BME280;4395;48.554;8.820;2023-06-10T02:39:43;95555.09;;;19.32;77.88
8717;BME280;4395;48.554;8.820;2023-06-10T02:41:46;95556.03;;;19.84;75.88
8717;BME280;4395;48.554;8.820;2023-06-10T02:43:50;95556.84;;;20.28;72.11
8717;BME280;4395;48.554;8.820;2023-06-10T02:45:55;95559.69;;;19.53;77.43
8717;BME280;4395;48.554;8.820;2023-06-10T02:47:57;95559.41;;;19.24;79.40
8717;BME280;4395;48.554;8.820;2023-06-10T02:50:00;95560.81;;;19.13;80.20
8717;BME280;4395;48.554;8.820;2023-06-10T02:52:08;95561.47;;;19.75;77.34
8717;BME280;4395;48.554;8.820;2023-06-10T02:54:12;95557.78;;;19.63;77.41
8717;BME280;4395;48.554;8.820;2023-06-10T02:56:16;95559.91;;;19.35;78.70
8717;BME280;4395;48.554;8.820;2023-06-10T02:58:19;95552.91;;;18.72;83.73
8717;BME280;4395;48.554;8.820;2023-06-10T03:00:23;95557.25;;;19.04;82.54
8717;BME280;4395;48.554;8.820;2023-06-10T03:02:27;95560.16;;;19.16;81.71
8717;BME280;4395;48.554;8.820;2023-06-10T03:04:31;95563.72;;;18.85;83.12
8717;BME280;4395;48.554;8.820;2023-06-10T03:06:42;95557.16;;;19.26;81.18
8717;BME280;4395;48.554;8.820;2023-06-10T03:08:52;95565.19;;;18.91;82.92
8717;BME280;4395;48.554;8.820;2023-06-10T03:10:56;95564.66;;;18.81;84.30
8717;BME280;4395;48.554;8.820;2023-06-10T03:12:59;95560.28;;;19.02;83.65
8717;BME280;4395;48.554;8.820;2023-06-10T03:15:02;95561.13;;;18.80;83.68
8717;BME280;4395;48.554;8.820;2023-06-10T03:17:05;95566.66;;;19.37;80.04
8717;BME280;4395;48.554;8.820;2023-06-10T03:19:11;95559.34;;;19.55;79.12
8717;BME280;4395;48.554;8.820;2023-06-10T03:21:19;95568.88;;;19.92;77.15
8717;BME280;4395;48.554;8.820;2023-06-10T03:23:22;95563.81;;;18.72;84.04
8717;BME280;4395;48.554;8.820;2023-06-10T03:25:25;95566.53;;;19.03;81.93
8717;BME280;4395;48.554;8.820;2023-06-10T03:27:30;95565.63;;;19.64;79.07
8717;BME280;4395;48.554;8.820;2023-06-10T03:29:37;95566.47;;;19.82;77.88
8717;BME280;4395;48.554;8.820;2023-06-10T03:31:41;95575.63;;;19.38;81.01
8717;BME280;4395;48.554;8.820;2023-06-10T03:33:44;95568.41;;;19.90;77.95
8717;BME280;4395;48.554;8.820;2023-06-10T03:35:48;95569.53;;;20.23;75.21
8717;BME280;4395;48.554;8.820;2023-06-10T03:37:51;95570.72;;;19.09;82.51
8717;BME280;4395;48.554;8.820;2023-06-10T03:39:54;95570.38;;;19.02;83.83
8717;BME280;4395;48.554;8.820;2023-06-10T03:41:58;95569.78;;;18.82;84.41
8717;BME280;4395;48.554;8.820;2023-06-10T03:44:03;95575.69;;;17.95;90.72
8717;BME280;4395;48.554;8.820;2023-06-10T03:46:06;95570.31;;;18.62;86.70
8717;BME280;4395;48.554;8.820;2023-06-10T03:48:09;95570.53;;;18.74;85.42
8717;BME280;4395;48.554;8.820;2023-06-10T03:50:19;95575.06;;;18.56;86.59
8717;BME280;4395;48.554;8.820;2023-06-10T03:52:25;95578.28;;;18.00;90.85
8717;BME280;4395;48.554;8.820;2023-06-10T03:54:28;95571.47;;;19.01;85.24
8717;BME280;4395;48.554;8.820;2023-06-10T03:56:31;95579.44;;;19.28;83.51
8717;BME280;4395;48.554;8.820;2023-06-10T03:58:34;95582.97;;;18.44;88.32
8717;BME280;4395;48.554;8.820;2023-06-10T04:00:38;95579.97;;;18.68;87.04
8717;BME280;4395;48.554;8.820;2023-06-10T04:02:43;95580.78;;;17.47;95.78
8717;BME280;4395;48.554;8.820;2023-06-10T04:05:05;95588.19;;;17.82;94.26
8717;BME280;4395;48.554;8.820;2023-06-10T04:07:09;95578.41;;;18.53;90.19
8717;BME280;4395;48.554;8.820;2023-06-10T04:09:14;95580.09;;;18.63;88.81
8717;BME280;4395;48.554;8.820;2023-06-10T04:11:18;95584.19;;;19.14;86.40
8717;BME280;4395;48.554;8.820;2023-06-10T04:13:21;95583.59;;;17.55;97.21
8717;BME280;4395;48.554;8.820;2023-06-10T04:15:28;95591.06;;;18.36;92.28
8717;BME280;4395;48.554;8.820;2023-06-10T04:17:32;95590.53;;;18.70;90.15
8717;BME280;4395;48.554;8.820;2023-06-10T04:19:35;95590.38;;;18.30;92.45
8717;BME280;4395;48.554;8.820;2023-06-10T04:21:38;95592.56;;;18.06;94.91
8717;BME280;4395;48.554;8.820;2023-06-10T04:23:41;95595.03;;;18.74;90.43
8717;BME280;4395;48.554;8.820;2023-06-10T04:25:46;95588.03;;;19.13;88.02
8717;BME280;4395;48.554;8.820;2023-06-10T04:27:50;95593.72;;;19.82;82.98
8717;BME280;4395;48.554;8.820;2023-06-10T04:29:55;95596.66;;;20.29;79.41
8717;BME280;4395;48.554;8.820;2023-06-10T04:31:59;95608.72;;;20.45;78.28
8717;BME280;4395;48.554;8.820;2023-06-10T04:34:04;95604.50;;;19.96;81.58
8717;BME280;4395;48.554;8.820;2023-06-10T04:36:07;95607.88;;;20.01;82.09
8717;BME280;4395;48.554;8.820;2023-06-10T04:38:10;95601.75;;;19.87;82.62
8717;BME280;4395;48.554;8.820;2023-06-10T04:40:14;95606.78;;;18.39;93.53
8717;BME280;4395;48.554;8.820;2023-06-10T04:42:21;95610.84;;;18.27;96.11
8717;BME280;4395;48.554;8.820;2023-06-10T04:44:24;95619.34;;;18.12;97.64
8717;BME280;4395;48.554;8.820;2023-06-10T04:46:27;95615.69;;;17.81;100.00
8717;BME280;4395;48.554;8.820;2023-06-10T04:48:32;95620.25;;;18.08;99.10
8717;BME280;4395;48.554;8.820;2023-06-10T04:50:37;95614.78;;;17.58;100.00
8717;BME280;4395;48.554;8.820;2023-06-10T04:52:40;95612.31;;;17.97;100.00
8717;BME280;4395;48.554;8.820;2023-06-10T04:54:44;95616.19;;;17.83;100.00
8717;BME280;4395;48.554;8.820;2023-06-10T04:56:47;95613.47;;;17.83;100.00
8717;BME280;4395;48.554;8.820;2023-06-10T04:58:51;95611.88;;;17.68;100.00
8717;BME280;4395;48.554;8.820;2023-06-10T05:00:53;95609.19;;;18.04;100.00
8717;BME280;4395;48.554;8.820;2023-06-10T05:02:56;95622.94;;;17.72;100.00
8717;BME280;4395;48.554;8.820;2023-06-10T05:04:59;95618.59;;;17.84;100.00
8717;BME280;4395;48.554;8.820;2023-06-10T05:07:02;95613.44;;;18.33;99.42
8717;BME280;4395;48.554;8.820;2023-06-10T05:09:06;95622.91;;;18.57;96.66
8717;BME280;4395;48.554;8.820;2023-06-10T05:11:09;95618.53;;;18.48;97.60
8717;BME280;4395;48.554;8.820;2023-06-10T05:13:12;95613.94;;;17.98;100.00
8717;BME280;4395;48.554;8.820;2023-06-10T05:15:16;95615.69;;;18.75;95.99
8717;BME280;4395;48.554;8.820;2023-06-10T05:17:19;95613.56;;;18.50;96.63
8717;BME280;4395;48.554;8.820;2023-06-10T05:19:22;95624.53;;;18.81;95.59
8717;BME280;4395;48.554;8.820;2023-06-10T05:21:25;95620.53;;;19.09;92.97
8717;BME280;4395;48.554;8.820;2023-06-10T05:23:28;95625.75;;;18.97;94.67
8717;BME280;4395;48.554;8.820;2023-06-10T05:25:32;95620.50;;;19.40;91.83
8717;BME280;4395;48.554;8.820;2023-06-10T05:27:35;95626.06;;;18.95;94.54
8717;BME280;4395;48.554;8.820;2023-06-10T05:29:38;95630.47;;;18.83;95.79
8717;BME280;4395;48.554;8.820;2023-06-10T05:31:42;95632.53;;;19.39;92.93
8717;BME280;4395;48.554;8.820;2023-06-10T05:33:45;95638.59;;;19.36;91.71
8717;BME280;4395;48.554;8.820;2023-06-10T05:35:48;95631.41;;;19.40;92.17
8717;BME280;4395;48.554;8.820;2023-06-10T05:37:51;95635.84;;;19.27;93.02
8717;BME280;4395;48.554;8.820;2023-06-10T05:39:54;95634.81;;;20.03;88.73
8717;BME280;4395;48.554;8.820;2023-06-10T05:41:57;95640.00;;;19.25;92.81
8717;BME280;4395;48.554;8.820;2023-06-10T05:44:01;95639.13;;;19.86;89.73
8717;BME280;4395;48.554;8.820;2023-06-10T05:46:03;95634.38;;;20.18;86.64
8717;BME280;4395;48.554;8.820;2023-06-10T05:48:08;95636.34;;;20.52;85.13
8717;BME280;4395;48.554;8.820;2023-06-10T05:50:10;95639.34;;;20.24;85.57
8717;BME280;4395;48.554;8.820;2023-06-10T05:52:13;95641.59;;;20.22;86.03
8717;BME280;4395;48.554;8.820;2023-06-10T05:54:16;95609.28;;;19.33;89.98
8717;BME280;4395;48.554;8.820;2023-06-10T05:56:19;95635.44;;;19.43;91.63
8717;BME280;4395;48.554;8.820;2023-06-10T05:58:23;95649.31;;;19.64;90.21
8717;BME280;4395;48.554;8.820;2023-06-10T06:00:26;95652.94;;;19.99;88.33
8717;BME280;4395;48.554;8.820;2023-06-10T06:02:28;95650.63;;;19.04;94.40
8717;BME280;4395;48.554;8.820;2023-06-10T06:04:33;95651.56;;;19.31;93.00
8717;BME280;4395;48.554;8.820;2023-06-10T06:06:38;95655.38;;;20.26;88.18
8717;BME280;4395;48.554;8.820;2023-06-10T06:08:41;95639.84;;;20.61;85.04
8717;BME280;4395;48.554;8.820;2023-06-10T06:10:44;95650.28;;;20.42;86.51
8717;BME280;4395;48.554;8.820;2023-06-10T06:12:47;95654.00;;;20.54;85.64
8717;BME280;4395;48.554;8.820;2023-06-10T06:14:50;95652.00;;;21.15;81.63
8717;BME280;4395;48.554;8.820;2023-06-10T06:16:53;95658.97;;;20.61;85.29
8717;BME280;4395;48.554;8.820;2023-06-10T06:18:55;95646.22;;;21.17;82.89
8717;BME280;4395;48.554;8.820;2023-06-10T06:20:59;95652.84;;;20.99;83.81
8717;BME280;4395;48.554;8.820;2023-06-10T06:23:02;95648.34;;;21.03;83.33
8717;BME280;4395;48.554;8.820;2023-06-10T06:25:06;95644.66;;;20.73;85.70
8717;BME280;4395;48.554;8.820;2023-06-10T06:27:09;95650.44;;;20.80;83.75
8717;BME280;4395;48.554;8.820;2023-06-10T06:29:12;95649.19;;;20.86;85.01
8717;BME280;4395;48.554;8.820;2023-06-10T06:31:15;95649.34;;;20.90;85.88
8717;BME280;4395;48.554;8.820;2023-06-10T06:33:18;95654.16;;;20.41;89.21
8717;BME280;4395;48.554;8.820;2023-06-10T06:35:21;95649.66;;;20.62;88.65
8717;BME280;4395;48.554;8.820;2023-06-10T06:37:25;95651.56;;;21.05;85.95
8717;BME280;4395;48.554;8.820;2023-06-10T06:39:46;95651.41;;;20.58;89.55
8717;BME280;4395;48.554;8.820;2023-06-10T06:41:49;95646.94;;;20.88;87.14
8717;BME280;4395;48.554;8.820;2023-06-10T06:43:59;95654.59;;;21.03;86.92
8717;BME280;4395;48.554;8.820;2023-06-10T06:46:11;95650.88;;;21.25;85.12
8717;BME280;4395;48.554;8.820;2023-06-10T06:48:18;95654.66;;;21.50;83.47
8717;BME280;4395;48.554;8.820;2023-06-10T06:50:21;95654.47;;;21.55;82.94
8717;BME280;4395;48.554;8.820;2023-06-10T06:52:25;95657.78;;;21.69;82.23
8717;BME280;4395;48.554;8.820;2023-06-10T06:54:28;95659.06;;;21.72;82.62
8717;BME280;4395;48.554;8.820;2023-06-10T06:56:30;95672.19;;;21.87;81.70
8717;BME280;4395;48.554;8.820;2023-06-10T06:58:33;95661.06;;;21.92;81.12
8717;BME280;4395;48.554;8.820;2023-06-10T07:00:36;95658.50;;;21.58;83.32
8717;BME280;4395;48.554;8.820;2023-06-10T07:02:39;95659.59;;;21.95;82.05
8717;BME280;4395;48.554;8.820;2023-06-10T07:04:42;95668.72;;;22.07;81.01
8717;BME280;4395;48.554;8.820;2023-06-10T07:06:45;95667.34;;;22.22;80.80
8717;BME280;4395;48.554;8.820;2023-06-10T07:08:50;95664.75;;;21.96;82.33
8717;BME280;4395;48.554;8.820;2023-06-10T07:10:53;95667.59;;;22.08;82.24
8717;BME280;4395;48.554;8.820;2023-06-10T07:12:55;95661.66;;;22.06;81.19
8717;BME280;4395;48.554;8.820;2023-06-10T07:14:58;95666.25;;;21.85;81.60
8717;BME280;4395;48.554;8.820;2023-06-10T07:17:01;95668.44;;;22.30;79.79
8717;BME280;4395;48.554;8.820;2023-06-10T07:19:04;95665.50;;;22.35;79.77
8717;BME280;4395;48.554;8.820;2023-06-10T07:21:07;95661.78;;;22.10;79.51
8717;BME280;4395;48.554;8.820;2023-06-10T07:23:10;95673.34;;;22.16;79.35
8717;BME280;4395;48.554;8.820;2023-06-10T07:25:14;95659.41;;;22.29;78.77
8717;BME280;4395;48.554;8.820;2023-06-10T07:27:17;95676.97;;;22.49;79.13
8717;BME280;4395;48.554;8.820;2023-06-10T07:29:20;95663.75;;;22.51;79.52
8717;BME280;4395;48.554;8.820;2023-06-10T07:31:23;95667.97;;;22.69;78.46
8717;BME280;4395;48.554;8.820;2023-06-10T07:33:26;95662.81;;;22.68;79.40
8717;BME280;4395;48.554;8.820;2023-06-10T07:35:29;95658.03;;;22.86;78.01
8717;BME280;4395;48.554;8.820;2023-06-10T07:37:31;95658.69;;;22.83;78.20
8717;BME280;4395;48.554;8.820;2023-06-10T07:39:34;95667.84;;;22.87;78.14
8717;BME280;4395;48.554;8.820;2023-06-10T07:41:38;95662.88;;;23.01;77.09
8717;BME280;4395;48.554;8.820;2023-06-10T07:43:41;95662.09;;;22.80;77.97
8717;BME280;4395;48.554;8.820;2023-06-10T07:45:44;95661.47;;;22.95;78.51
8717;BME280;4395;48.554;8.820;2023-06-10T07:47:47;95649.19;;;23.01;77.68
8717;BME280;4395;48.554;8.820;2023-06-10T07:49:50;95652.41;;;23.15;77.24
8717;BME280;4395;48.554;8.820;2023-06-10T07:51:54;95646.72;;;23.20;76.43
8717;BME280;4395;48.554;8.820;2023-06-10T07:53:57;95648.16;;;23.05;77.00
8717;BME280;4395;48.554;8.820;2023-06-10T07:56:00;95653.13;;;23.24;76.30
8717;BME280;4395;48.554;8.820;2023-06-10T07:58:04;95650.41;;;23.36;76.16
8717;BME280;4395;48.554;8.820;2023-06-10T08:00:08;95653.09;;;23.45;76.07
8717;BME280;4395;48.554;8.820;2023-06-10T08:02:14;95647.53;;;23.66;75.53
8717;BME280;4395;48.554;8.820;2023-06-10T08:04:16;95645.72;;;23.82;74.30
8717;BME280;4395;48.554;8.820;2023-06-10T08:06:19;95650.53;;;23.85;73.81
8717;BME280;4395;48.554;8.820;2023-06-10T08:08:22;95652.56;;;24.00;73.08
8717;BME280;4395;48.554;8.820;2023-06-10T08:10:25;95645.72;;;24.07;72.32
8717;BME280;4395;48.554;8.820;2023-06-10T08:12:28;95645.94;;;24.01;72.42
8717;BME280;4395;48.554;8.820;2023-06-10T08:14:32;95642.72;;;24.12;72.38
8717;BME280;4395;48.554;8.820;2023-06-10T08:16:35;95640.66;;;24.33;72.44
8717;BME280;4395;48.554;8.820;2023-06-10T08:18:38;95638.75;;;24.61;69.43
8717;BME280;4395;48.554;8.820;2023-06-10T08:20:41;95642.44;;;24.53;69.49
8717;BME280;4395;48.554;8.820;2023-06-10T08:22:44;95636.47;;;24.63;69.43
8717;BME280;4395;48.554;8.820;2023-06-10T08:24:47;95639.81;;;24.85;66.59
8717;BME280;4395;48.554;8.820;2023-06-10T08:26:50;95639.28;;;24.79;66.34
8717;BME280;4395;48.554;8.820;2023-06-10T08:28:52;95639.22;;;24.63;66.84
8717;BME280;4395;48.554;8.820;2023-06-10T08:30:58;95641.78;;;24.84;64.89
8717;BME280;4395;48.554;8.820;2023-06-10T08:33:01;95644.81;;;24.95;62.43
8717;BME280;4395;48.554;8.820;2023-06-10T08:35:04;95648.16;;;25.00;62.82
8717;BME280;4395;48.554;8.820;2023-06-10T08:37:07;95643.13;;;25.18;61.52
8717;BME280;4395;48.554;8.820;2023-06-10T08:39:10;95651.63;;;25.13;61.76
8717;BME280;4395;48.554;8.820;2023-06-10T08:41:14;95660.69;;;25.14;60.90
8717;BME280;4395;48.554;8.820;2023-06-10T08:43:23;95637.13;;;25.44;58.26
8717;BME280;4395;48.554;8.820;2023-06-10T08:45:31;95651.09;;;25.67;58.22
8717;BME280;4395;48.554;8.820;2023-06-10T08:47:39;95645.97;;;25.81;57.54
8717;BME280;4395;48.554;8.820;2023-06-10T08:49:46;95642.59;;;25.88;56.36
8717;BME280;4395;48.554;8.820;2023-06-10T08:51:50;95645.25;;;25.84;56.85
8717;BME280;4395;48.554;8.820;2023-06-10T08:54:00;95644.91;;;26.02;57.61
8717;BME280;4395;48.554;8.820;2023-06-10T08:56:04;95646.13;;;25.88;56.01
8717;BME280;4395;48.554;8.820;2023-06-10T08:58:08;95645.69;;;26.02;56.33
8717;BME280;4395;48.554;8.820;2023-06-10T09:00:13;95650.75;;;26.16;56.13
8717;BME280;4395;48.554;8.820;2023-06-10T09:02:16;95640.97;;;26.34;55.45
8717;BME280;4395;48.554;8.820;2023-06-10T09:04:24;95647.22;;;26.50;53.82
8717;BME280;4395;48.554;8.820;2023-06-10T09:06:27;95639.56;;;26.59;52.67
8717;BME280;4395;48.554;8.820;2023-06-10T09:08:30;95639.66;;;25.96;54.49
8717;BME280;4395;48.554;8.820;2023-06-10T09:10:33;95640.53;;;26.16;53.72
8717;BME280;4395;48.554;8.820;2023-06-10T09:12:36;95636.28;;;26.03;53.95
8717;BME280;4395;48.554;8.820;2023-06-10T09:14:39;95642.81;;;26.30;53.08
8717;BME280;4395;48.554;8.820;2023-06-10T09:16:42;95630.63;;;26.66;50.36
8717;BME280;4395;48.554;8.820;2023-06-10T09:18:48;95641.81;;;26.73;50.34
8717;BME280;4395;48.554;8.820;2023-06-10T09:20:57;95637.53;;;26.95;48.86
8717;BME280;4395;48.554;8.820;2023-06-10T09:23:00;95643.56;;;27.01;49.14
8717;BME280;4395;48.554;8.820;2023-06-10T09:25:04;95648.19;;;26.58;50.60
8717;BME280;4395;48.554;8.820;2023-06-10T09:27:09;95636.44;;;26.80;50.56
8717;BME280;4395;48.554;8.820;2023-06-10T09:29:12;95643.75;;;26.73;52.24
8717;BME280;4395;48.554;8.820;2023-06-10T09:31:16;95640.94;;;26.88;51.26
8717;BME280;4395;48.554;8.820;2023-06-10T09:33:24;95642.44;;;26.47;53.27
8717;BME280;4395;48.554;8.820;2023-06-10T09:35:29;95633.75;;;26.65;51.58
8717;BME280;4395;48.554;8.820;2023-06-10T09:37:38;95637.38;;;26.88;51.56
8717;BME280;4395;48.554;8.820;2023-06-10T09:39:41;95634.63;;;26.69;52.36
8717;BME280;4395;48.554;8.820;2023-06-10T09:41:45;95636.03;;;26.98;52.00
8717;BME280;4395;48.554;8.820;2023-06-10T09:43:48;95632.25;;;27.06;50.85
8717;BME280;4395;48.554;8.820;2023-06-10T09:45:51;95632.66;;;26.69;49.00
8717;BME280;4395;48.554;8.820;2023-06-10T09:47:55;95640.63;;;26.55;51.23
8717;BME280;4395;48.554;8.820;2023-06-10T09:49:58;95634.56;;;27.04;51.30
8717;BME280;4395;48.554;8.820;2023-06-10T09:52:05;95634.50;;;27.42;49.14
8717;BME280;4395;48.554;8.820;2023-06-10T09:54:09;95633.56;;;27.77;48.56
8717;BME280;4395;48.554;8.820;2023-06-10T09:56:12;95622.41;;;27.28;49.58
8717;BME280;4395;48.554;8.820;2023-06-10T09:58:15;95633.09;;;27.52;49.81
8717;BME280;4395;48.554;8.820;2023-06-10T10:00:19;95637.03;;;27.97;48.97
8717;BME280;4395;48.554;8.820;2023-06-10T10:02:21;95628.22;;;28.14;47.10
8717;BME280;4395;48.554;8.820;2023-06-10T10:04:24;95628.66;;;28.16;47.14
8717;BME280;4395;48.554;8.820;2023-06-10T10:06:27;95625.72;;;28.28;47.27
8717;BME280;4395;48.554;8.820;2023-06-10T10:08:31;95629.47;;;27.67;49.41
8717;BME280;4395;48.554;8.820;2023-06-10T10:10:35;95642.63;;;27.12;52.51
8717;BME280;4395;48.554;8.820;2023-06-10T10:12:39;95625.38;;;27.38;50.33
8717;BME280;4395;48.554;8.820;2023-06-10T10:14:46;95631.50;;;27.97;47.40
8717;BME280;4395;48.554;8.820;2023-06-10T10:16:50;95627.53;;;28.21;47.66
8717;BME280;4395;48.554;8.820;2023-06-10T10:18:56;95628.25;;;28.67;46.53
8717;BME280;4395;48.554;8.820;2023-06-10T10:21:05;95637.59;;;28.59;45.33
8717;BME280;4395;48.554;8.820;2023-06-10T10:23:10;95633.22;;;28.84;43.75
8717;BME280;4395;48.554;8.820;2023-06-10T10:25:18;95637.13;;;28.53;44.29
8717;BME280;4395;48.554;8.820;2023-06-10T10:27:28;95635.66;;;27.61;47.32
8717;BME280;4395;48.554;8.820;2023-06-10T10:29:37;95628.59;;;27.63;47.69
8717;BME280;4395;48.554;8.820;2023-06-10T10:31:42;95628.16;;;27.61;47.86
8717;BME280;4395;48.554;8.820;2023-06-10T10:33:53;95631.56;;;27.32;49.23
8717;BME280;4395;48.554;8.820;2023-06-10T10:35:58;95626.38;;;27.07;50.22
8717;BME280;4395;48.554;8.820;2023-06-10T10:38:02;95629.97;;;27.53;49.44
8717;BME280;4395;48.554;8.820;2023-06-10T10:40:07;95623.19;;;28.46;46.20
8717;BME280;4395;48.554;8.820;2023-06-10T10:42:11;95628.16;;;28.90;43.90
8717;BME280;4395;48.554;8.820;2023-06-10T10:44:16;95626.00;;;28.76;44.90
8717;BME280;4395;48.554;8.820;2023-06-10T10:46:19;95631.59;;;29.13;44.02
8717;BME280;4395;48.554;8.820;2023-06-10T10:48:23;95621.47;;;29.28;42.37
8717;BME280;4395;48.554;8.820;2023-06-10T10:50:28;95623.69;;;29.11;43.79
8717;BME280;4395;48.554;8.820;2023-06-10T10:52:48;95614.06;;;28.42;46.44
8717;BME280;4395;48.554;8.820;2023-06-10T10:54:54;95607.16;;;28.02;45.35
8717;BME280;4395;48.554;8.820;2023-06-10T10:57:13;95619.19;;;26.83;50.36
8717;BME280;4395;48.554;8.820;2023-06-10T10:59:18;95617.47;;;27.60;48.38
8717;BME280;4395;48.554;8.820;2023-06-10T11:01:21;95619.75;;;26.92;51.50
8717;BME280;4395;48.554;8.820;2023-06-10T11:03:28;95608.91;;;28.14;46.00
8717;BME280;4395;48.554;8.820;2023-06-10T11:05:38;95611.75;;;29.04;43.24
8717;BME280;4395;48.554;8.820;2023-06-10T11:07:52;95619.38;;;29.51;41.81
8717;BME280;4395;48.554;8.820;2023-06-10T11:09:59;95606.84;;;29.64;41.83
8717;BME280;4395;48.554;8.820;2023-06-10T11:12:05;95616.94;;;29.46;40.66
8717;BME280;4395;48.554;8.820;2023-06-10T11:14:08;95621.16;;;29.73;39.95
8717;BME280;4395;48.554;8.820;2023-06-10T11:16:19;95611.81;;;30.47;38.22